Highville, Pennsylvania
Current Conditions -  °F | °C
As of 11:53 AM on Tuesday 21 Oct 2014 (Local Time) from KLNS Reporting Station
Few Clouds Few Clouds  
Wind Chill: 60°   Ceiling: Unl
Heat Index: 60°   Visibility: 10mi
Dew Point: 51°   Wind: 0mph
Humidity: 72%   Direction: NA
Pressure: 29.86"   Gusts: NA
Location:  39.9352°N, 76.3442°W
Report Text: KLNS 211553Z 00000KT 10SM FEW050 16/11 A2986 RMK AO2 SLP112 T01560106
Loading
Personal Weather Stations






























Interactive Weather Map
Tropical Storm Tracking
New forecast layout! Learn more

10-Day Weather Forecast

Advertisements
Track Severe Weather on mobile